This demonstration page uses our WeatherBlox Daily Observations layout. Learn more.

36.17497, -115.13722

Hourly Observations for May 9, 2015

Temp ( °F °C ) Dew Point ( °F °C ) Humidity (%) Winds ( mph kmh ) Pressure ( in mb ) Visibility ( mi km ) Precip ( " mm )
12:53 am 00:53 Clear 54 12.2 30 -1.1 40 40 Calm 29.95 1014 10 16.0934 0 0
1:53 am 01:53 Clear 52 11.1 31 -0.6 45 45 N 5 7 29.95 1014 10 16.0934 0 0
2:53 am 02:53 Clear 51 10.6 29 -1.7 43 43 NNW 3 6 29.95 1014 10 16.0934 0 0
3:53 am 03:53 Clear 51 10.6 29 -1.7 43 43 NNE 6 9 29.95 1014 10 16.0934 0 0
4:53 am 04:53 Clear 50 10 28 -2.2 43 43 Calm 29.95 1014 10 16.0934 0 0
5:53 am 05:53 Sunny 50 10 28 -2.2 43 43 N 3 6 29.96 1014 10 16.0934 0 0
6:53 am 06:53 Sunny 50 10 29 -1.7 44 44 NE 3 6 29.96 1015 10 16.0934 0 0
7:53 am 07:53 Sunny 52 11.1 32 0 47 47 Calm 29.98 1015 10 16.0934 0 0
8:53 am 08:53 Sunny 54 12.2 32 0 43 43 Calm 29.98 1015 10 16.0934 0 0
9:53 am 09:53 Mostly Sunny 58 14.4 31 -0.6 36 36 ENE 5 7 29.99 1016 10 16.0934 0 0
10:53 am 10:53 Sunny 61 16.1 31 -0.6 32 32 E 8 13 29.99 1016 10 16.0934 0 0
11:53 am 11:53 Sunny 65 18.3 31 -0.6 28 28 NE 7 11 29.98 1015 10 16.0934 0 0
12:53 pm 12:53 Mostly Cloudy 66 18.9 31 -0.6 27 27 E 6 9 29.97 1015 10 16.0934 0 0
1:53 pm 13:53 Sunny 69 20.6 31 -0.6 24 24 VRB 5 7 29.95 1014 10 16.0934 0 0
2:53 pm 14:53 Sunny 71 21.7 31 -0.6 23 23 ENE 8 13 29.93 1014 10 16.0934 0 0
3:53 pm 15:53 Partly Cloudy 71 21.7 31 -0.6 23 23 E 8 13 29.91 1013 10 16.0934 0 0
4:53 pm 16:53 Mostly Cloudy 73 22.8 30 -1.1 20 20 undefined N/A 29.9 1013 10 16.0934 0 0
5:53 pm 17:53 Cloudy 72 22.2 32 0 23 23 undefined N/A 29.92 1013 10 16.0934 0 0
6:53 pm 18:53 Mostly Cloudy 70 21.1 32 0 25 25 E 22 35 29.93 1014 10 16.0934 0 0
7:53 pm 19:53 Mostly Clear 67 19.4 36 2.2 32 32 E 13 20 29.97 1015 10 16.0934 0 0
8:53 pm 20:53 Cloudy 66 18.9 37 2.8 34 34 SE 6 9 30 1016 10 16.0934 0 0
9:53 pm 21:53 Clear 66 18.9 38 3.3 36 36 S 6 9 30 1016 10 16.0934 0 0
10:53 pm 22:53 Clear 63 17.2 42 5.6 47 47 SSE 9 15 30 1016 10 16.0934 0 0
11:53 pm 23:53 Clear 62 16.7 42 5.6 48 48 SE 9 15 30 1016 10 16.0934 0 0

Powered by AerisWeather